createdAt,value
2017-05-05T00:00:26.351Z,4.50
2017-05-05T00:02:53.357Z,5.17
2017-05-05T00:05:20.358Z,4.47
2017-05-05T00:07:47.476Z,4.68
2017-05-05T00:10:14.520Z,4.38
2017-05-05T00:12:41.598Z,4.80
2017-05-05T00:15:08.608Z,4.50
2017-05-05T00:17:35.622Z,5.17
2017-05-05T00:20:02.664Z,4.60
2017-05-05T00:22:29.667Z,4.93
2017-05-05T00:24:56.707Z,5.52
2017-05-05T00:27:23.687Z,4.97
2017-05-05T00:29:50.705Z,4.42
2017-05-05T00:32:17.732Z,5.48
2017-05-05T00:34:45.523Z,4.53
2017-05-05T00:37:12.554Z,5.00
2017-05-05T00:39:40.320Z,5.62
2017-05-05T00:42:07.345Z,5.87
2017-05-05T00:44:34.378Z,8.80
2017-05-05T00:47:01.415Z,5.68
2017-05-05T00:49:28.436Z,6.13
2017-05-05T00:51:55.792Z,6.40
2017-05-05T00:54:22.811Z,6.83
2017-05-05T00:56:49.811Z,6.47
2017-05-05T00:59:16.856Z,6.40
2017-05-05T01:01:43.870Z,6.50
2017-05-05T01:04:10.874Z,6.33
2017-05-05T01:06:38.659Z,7.53
2017-05-05T01:09:06.065Z,7.28
2017-05-05T01:11:33.081Z,6.85
2017-05-05T01:14:00.087Z,7.15
2017-05-05T01:16:27.890Z,6.58
2017-05-05T01:18:54.899Z,7.32
2017-05-05T01:21:22.650Z,6.97
2017-05-05T01:23:49.698Z,7.75
2017-05-05T01:26:16.711Z,8.08
2017-05-05T01:28:43.709Z,7.75
2017-05-05T01:31:11.864Z,8.60
2017-05-05T01:33:38.878Z,7.98
2017-05-05T01:36:05.893Z,8.20
2017-05-05T01:38:32.939Z,8.05
2017-05-05T01:40:59.934Z,9.18
2017-05-05T01:43:26.986Z,8.68
2017-05-05T01:45:53.990Z,10.83
2017-05-05T01:48:20.997Z,11.47
2017-05-05T01:50:47.998Z,10.75
2017-05-05T01:53:15.031Z,11.82
2017-05-05T01:55:42.038Z,11.28
2017-05-05T01:58:09.798Z,11.15
2017-05-05T02:00:36.851Z,11.05
2017-05-05T02:03:04.602Z,14.47
2017-05-05T02:05:31.601Z,12.53
2017-05-05T02:07:58.697Z,11.73
2017-05-05T02:10:25.692Z,11.73
2017-05-05T02:12:52.696Z,12.85
2017-05-05T02:15:20.481Z,11.82
2017-05-05T02:17:47.485Z,12.98
2017-05-05T02:20:14.497Z,12.13
2017-05-05T02:22:41.593Z,13.73
2017-05-05T02:25:09.354Z,13.22
2017-05-05T02:27:36.376Z,11.68
2017-05-05T02:30:03.448Z,15.12
2017-05-05T02:32:30.469Z,13.77
2017-05-05T02:34:57.477Z,13.27
2017-05-05T02:37:24.508Z,14.20
2017-05-05T02:39:52.240Z,12.95
2017-05-05T02:42:19.233Z,14.68
2017-05-05T02:44:46.294Z,14.83
2017-05-05T02:47:13.279Z,11.77
2017-05-05T02:49:40.273Z,12.18
2017-05-05T02:52:07.294Z,12.53
2017-05-05T02:54:35.040Z,11.80
2017-05-05T02:57:02.058Z,15.82
2017-05-05T02:59:29.096Z,13.57
2017-05-05T03:01:56.096Z,13.47
2017-05-05T03:04:23.851Z,16.80
2017-05-05T03:06:50.900Z,14.78
2017-05-05T03:09:18.690Z,13.68
2017-05-05T03:11:45.683Z,14.78
2017-05-05T03:14:12.740Z,13.50
2017-05-05T03:16:39.755Z,14.40
2017-05-05T03:19:06.778Z,14.42
2017-05-05T03:21:34.142Z,15.40
2017-05-05T03:24:01.161Z,16.28
2017-05-05T03:26:28.901Z,13.72
2017-05-05T03:28:55.939Z,17.70
2017-05-05T03:31:22.951Z,17.65
2017-05-05T03:33:49.960Z,16.03
2017-05-05T03:36:17.704Z,16.25
2017-05-05T03:38:44.692Z,16.17
2017-05-05T03:41:11.699Z,16.52
2017-05-05T03:43:38.767Z,16.92
2017-05-05T03:46:06.534Z,20.77
2017-05-05T03:48:33.586Z,19.15
2017-05-05T03:51:00.620Z,17.33
2017-05-05T03:53:27.635Z,18.33
2017-05-05T03:55:54.695Z,18.68
2017-05-05T03:58:21.707Z,18.77
2017-05-05T04:00:48.684Z,17.60
2017-05-05T04:03:15.678Z,18.22
2017-05-05T04:05:42.698Z,19.03
2017-05-05T04:08:10.461Z,18.75
2017-05-05T04:10:37.450Z,19.22
2017-05-05T04:13:04.461Z,19.88
2017-05-05T04:15:32.239Z,24.42
2017-05-05T04:17:59.253Z,27.17
2017-05-05T04:20:26.306Z,25.30
2017-05-05T04:22:53.361Z,21.47
2017-05-05T04:25:21.094Z,22.12
2017-05-05T04:27:48.092Z,22.48
2017-05-05T04:30:15.186Z,22.52
2017-05-05T04:32:42.204Z,21.05
2017-05-05T04:35:09.316Z,24.60
2017-05-05T04:37:37.113Z,21.15
2017-05-05T04:40:04.105Z,22.22
2017-05-05T04:42:31.140Z,18.52
2017-05-05T04:44:58.155Z,18.18
2017-05-05T04:47:25.182Z,18.02
2017-05-05T04:49:52.211Z,19.80
2017-05-05T04:52:19.970Z,21.30
2017-05-05T04:54:46.951Z,20.53
2017-05-05T04:57:14.037Z,21.27
2017-05-05T04:59:41.087Z,26.20
2017-05-05T05:02:08.142Z,21.28
2017-05-05T05:04:35.178Z,20.73
2017-05-05T05:07:02.178Z,20.53
2017-05-05T05:09:29.252Z,21.40
2017-05-05T05:11:56.293Z,20.78
2017-05-05T05:14:23.300Z,23.40
2017-05-05T05:16:51.083Z,20.53
2017-05-05T05:19:18.085Z,19.60
2017-05-05T05:21:45.081Z,22.32
2017-05-05T05:24:12.145Z,20.88
2017-05-05T05:26:39.207Z,25.78
2017-05-05T05:29:06.203Z,23.83
2017-05-05T05:31:33.979Z,24.20
2017-05-05T05:34:01.068Z,23.63
2017-05-05T05:36:28.073Z,24.25
2017-05-05T05:38:55.073Z,21.95
2017-05-05T05:41:22.128Z,23.68
2017-05-05T05:43:49.146Z,22.62
2017-05-05T05:46:16.153Z,22.42
2017-05-05T05:48:43.178Z,23.40
2017-05-05T05:51:10.185Z,24.53
2017-05-05T05:53:37.276Z,19.90
2017-05-05T05:56:05.047Z,21.87
2017-05-05T05:58:32.780Z,22.03
2017-05-05T06:00:59.806Z,24.77
2017-05-05T06:03:26.892Z,25.03
2017-05-05T06:05:53.962Z,19.48
2017-05-05T06:08:21.714Z,18.17
2017-05-05T06:10:49.479Z,17.85
2017-05-05T06:13:17.272Z,20.33
2017-05-05T06:15:44.277Z,17.68
2017-05-05T06:18:11.275Z,19.00
2017-05-05T06:20:38.303Z,19.47
2017-05-05T06:23:05.277Z,19.15
2017-05-05T06:25:32.288Z,34.73
2017-05-05T06:27:59.343Z,47.07
2017-05-05T06:30:26.354Z,40.98
2017-05-05T06:32:53.384Z,21.27
2017-05-05T06:35:20.433Z,19.33
2017-05-05T06:37:47.421Z,18.50
2017-05-05T06:40:14.466Z,18.90
2017-05-05T06:42:41.532Z,19.63
2017-05-05T06:45:08.519Z,17.53
2017-05-05T06:47:35.533Z,17.08
2017-05-05T06:50:02.640Z,18.43
2017-05-05T06:52:30.362Z,14.28
2017-05-05T06:54:57.372Z,15.45
2017-05-05T06:57:24.381Z,16.23
2017-05-05T06:59:51.393Z,17.55
2017-05-05T07:02:18.395Z,18.63
2017-05-05T07:04:46.187Z,15.78
2017-05-05T07:07:13.260Z,15.33
2017-05-05T07:09:40.253Z,15.48
2017-05-05T07:12:07.278Z,15.22
2017-05-05T07:14:34.330Z,15.18
2017-05-05T07:17:01.351Z,14.65
2017-05-05T07:19:28.365Z,15.42
2017-05-05T07:21:55.423Z,13.67
2017-05-05T07:24:22.411Z,14.00
2017-05-05T07:26:49.420Z,12.97
2017-05-05T07:29:16.476Z,13.25
2017-05-05T07:31:43.480Z,14.18
2017-05-05T07:34:10.499Z,14.27
2017-05-05T07:36:37.528Z,12.97
2017-05-05T07:39:04.592Z,11.90
2017-05-05T07:41:31.588Z,12.17
2017-05-05T07:43:58.646Z,12.25
2017-05-05T07:46:25.667Z,12.60
2017-05-05T07:48:52.653Z,13.45
2017-05-05T07:51:19.691Z,14.34
2017-05-05T07:53:46.684Z,12.68
2017-05-05T07:56:13.693Z,13.18
2017-05-05T07:58:40.730Z,13.25
2017-05-05T08:01:08.069Z,13.97
2017-05-05T08:03:35.062Z,14.55
2017-05-05T08:06:02.092Z,13.98
2017-05-05T08:08:29.098Z,14.00
2017-05-05T08:10:56.119Z,14.93
2017-05-05T08:13:23.894Z,13.42
2017-05-05T08:15:50.926Z,14.75
2017-05-05T08:18:18.662Z,13.67
2017-05-05T08:20:45.675Z,13.02
2017-05-05T08:23:12.760Z,12.37
2017-05-05T08:25:39.776Z,12.25
2017-05-05T08:28:06.780Z,12.00
2017-05-05T08:30:33.113Z,13.33
2017-05-05T08:33:00.839Z,9.87
2017-05-05T08:35:27.885Z,10.85
2017-05-05T08:37:54.932Z,9.65
2017-05-05T08:40:21.928Z,10.52
2017-05-05T08:42:48.935Z,11.48
2017-05-05T08:45:16.004Z,10.38
2017-05-05T08:47:43.763Z,11.32
2017-05-05T08:50:11.536Z,11.28
2017-05-05T08:52:39.328Z,10.78
2017-05-05T08:55:06.411Z,9.57
2017-05-05T08:57:33.463Z,12.22
2017-05-05T09:00:00.463Z,10.57
2017-05-05T09:02:27.575Z,10.25
2017-05-05T09:04:54.612Z,12.30
2017-05-05T09:07:21.617Z,10.00
2017-05-05T09:09:48.647Z,10.15
2017-05-05T09:12:15.687Z,10.55
2017-05-05T09:14:42.744Z,10.73
2017-05-05T09:17:09.740Z,9.98
2017-05-05T09:19:36.778Z,11.13
2017-05-05T09:22:03.836Z,10.08
2017-05-05T09:24:30.884Z,11.47
2017-05-05T09:26:57.912Z,10.07
2017-05-05T09:29:24.976Z,10.20
2017-05-05T09:31:51.995Z,10.07
2017-05-05T09:34:19.055Z,9.93
2017-05-05T09:36:46.089Z,9.57
2017-05-05T09:39:13.108Z,10.75
2017-05-05T09:41:40.162Z,12.30
2017-05-05T09:44:07.182Z,14.22
2017-05-05T09:46:34.929Z,10.87
2017-05-05T09:49:01.996Z,11.63
2017-05-05T09:51:29.805Z,11.80
2017-05-05T09:53:56.885Z,14.93
2017-05-05T09:56:23.902Z,13.53
2017-05-05T09:58:50.980Z,18.60
2017-05-05T10:01:18.042Z,11.55
2017-05-05T10:03:45.088Z,11.63
2017-05-05T10:06:12.857Z,11.70
2017-05-05T10:08:51.891Z,10.85
2017-05-05T10:11:18.923Z,9.58
2017-05-05T10:13:46.680Z,12.33
2017-05-05T10:16:13.726Z,10.12
2017-05-05T10:18:40.748Z,11.13
2017-05-05T10:21:07.756Z,9.88
2017-05-05T10:23:34.841Z,10.72
2017-05-05T10:26:01.956Z,10.57
2017-05-05T10:28:29.017Z,11.20
2017-05-05T10:30:56.046Z,10.92
2017-05-05T10:33:23.056Z,10.92
2017-05-05T10:35:50.095Z,11.03
2017-05-05T10:38:17.112Z,10.67
2017-05-05T10:40:44.131Z,12.38
2017-05-05T10:43:11.192Z,11.40
2017-05-05T10:45:38.282Z,10.95
2017-05-05T10:48:05.299Z,10.68
2017-05-05T10:50:32.361Z,11.67
2017-05-05T10:52:59.391Z,12.08
2017-05-05T10:55:26.398Z,12.18
2017-05-05T10:57:53.623Z,10.83
2017-05-05T11:00:20.672Z,12.42
2017-05-05T11:02:47.680Z,12.02
2017-05-05T11:05:14.687Z,12.82
2017-05-05T11:07:42.477Z,12.65
2017-05-05T11:10:09.478Z,13.08
2017-05-05T11:12:36.504Z,13.30
2017-05-05T11:15:03.576Z,14.08
2017-05-05T11:17:30.593Z,14.73
2017-05-05T11:19:57.611Z,13.58
2017-05-05T11:22:24.654Z,14.97
2017-05-05T11:24:51.704Z,14.60
2017-05-05T11:27:18.774Z,14.78
2017-05-05T11:29:45.819Z,16.12
2017-05-05T11:32:13.478Z,16.08
2017-05-05T11:34:40.528Z,13.48
2017-05-05T11:37:07.586Z,14.37
2017-05-05T11:39:34.650Z,14.00
2017-05-05T11:42:01.678Z,15.68
2017-05-05T11:44:28.706Z,14.58
2017-05-05T11:46:55.778Z,14.10
2017-05-05T11:49:22.804Z,15.13
2017-05-05T11:51:49.860Z,15.65
2017-05-05T11:54:17.009Z,15.12
2017-05-05T11:56:44.070Z,14.90
2017-05-05T11:59:11.114Z,16.65
2017-05-05T12:01:38.166Z,13.75
2017-05-05T12:04:05.187Z,13.62
2017-05-05T12:06:32.168Z,14.67
2017-05-05T12:08:59.228Z,15.13
2017-05-05T12:11:26.254Z,15.17
2017-05-05T12:13:53.293Z,14.32
2017-05-05T12:16:20.364Z,12.55
2017-05-05T12:18:47.405Z,12.82
2017-05-05T12:21:14.425Z,14.50
2017-05-05T12:23:41.502Z,14.18
2017-05-05T12:26:08.545Z,13.35
2017-05-05T12:28:35.595Z,14.38
2017-05-05T12:31:02.585Z,14.35
2017-05-05T12:33:29.696Z,13.72
2017-05-05T12:35:57.540Z,12.17
2017-05-05T12:38:24.616Z,11.97
2017-05-05T12:40:51.623Z,13.40
2017-05-05T12:43:18.679Z,11.23
2017-05-05T12:45:45.704Z,11.98
2017-05-05T12:48:12.781Z,11.45
2017-05-05T12:50:39.898Z,10.38
2017-05-05T12:53:06.922Z,11.13
2017-05-05T12:55:34.001Z,9.17
2017-05-05T12:58:01.058Z,9.73
2017-05-05T13:00:28.059Z,9.67
2017-05-05T13:02:55.091Z,9.42
2017-05-05T13:05:22.148Z,10.58
2017-05-05T13:07:49.948Z,9.88
2017-05-05T13:10:16.975Z,8.78
2017-05-05T13:12:44.044Z,9.77
2017-05-05T13:15:11.056Z,8.88
2017-05-05T13:17:38.801Z,10.98
2017-05-05T13:20:05.872Z,8.30
2017-05-05T13:22:32.927Z,8.30
2017-05-05T13:24:59.944Z,9.20
2017-05-05T13:27:27.733Z,9.97
2017-05-05T13:29:54.819Z,8.65
2017-05-05T13:32:21.881Z,8.50
2017-05-05T13:34:48.889Z,9.07
2017-05-05T13:37:15.907Z,9.20
2017-05-05T13:39:43.721Z,11.75
2017-05-05T13:42:10.750Z,8.90
2017-05-05T13:44:37.762Z,8.92
2017-05-05T13:47:05.564Z,8.80
2017-05-05T13:49:32.600Z,10.23
2017-05-05T13:51:59.570Z,7.77
2017-05-05T13:54:26.616Z,7.62
2017-05-05T13:56:53.659Z,5.88
2017-05-05T13:59:20.668Z,6.30
2017-05-05T14:01:47.749Z,9.08
2017-05-05T14:04:14.769Z,8.85
2017-05-05T14:06:41.783Z,10.05
2017-05-05T14:09:08.824Z,7.88
2017-05-05T14:11:35.824Z,7.57
2017-05-05T14:14:02.882Z,7.70
2017-05-05T14:16:29.895Z,7.02
2017-05-05T14:18:56.928Z,7.38
2017-05-05T14:21:24.742Z,7.25
2017-05-05T14:23:51.803Z,6.85
2017-05-05T14:26:18.813Z,8.43
2017-05-05T14:28:45.912Z,7.82
2017-05-05T14:31:12.966Z,7.15
2017-05-05T14:33:40.009Z,6.22
2017-05-05T14:36:07.310Z,6.68
2017-05-05T14:38:34.406Z,6.47
2017-05-05T14:41:01.504Z,9.07
2017-05-05T14:43:28.572Z,5.95
2017-05-05T14:45:55.638Z,6.10
2017-05-05T14:48:22.680Z,6.25
2017-05-05T14:50:49.738Z,5.57
2017-05-05T14:53:16.807Z,5.70
2017-05-05T14:55:43.838Z,4.97
2017-05-05T14:58:10.894Z,6.47
2017-05-05T15:00:37.892Z,5.97
2017-05-05T15:03:04.929Z,5.85
2017-05-05T15:05:31.983Z,7.58
2017-05-05T15:07:58.997Z,6.77
2017-05-05T15:10:26.787Z,6.33
2017-05-05T15:12:53.894Z,5.72
2017-05-05T15:15:20.923Z,6.10
2017-05-05T15:17:47.965Z,6.35
2017-05-05T15:20:15.066Z,6.20
2017-05-05T15:22:42.490Z,9.52
2017-05-05T15:25:09.496Z,5.92
2017-05-05T15:27:36.547Z,6.43
2017-05-05T15:30:03.568Z,7.47
2017-05-05T15:32:30.648Z,6.87
2017-05-05T15:34:57.654Z,6.52
2017-05-05T15:37:24.673Z,6.68
2017-05-05T15:39:51.705Z,5.60
2017-05-05T15:42:18.739Z,5.57
2017-05-05T15:44:45.746Z,5.35
2017-05-05T15:47:12.795Z,5.98
2017-05-05T15:49:39.815Z,5.13
2017-05-05T15:52:07.678Z,5.12
2017-05-05T15:54:35.519Z,5.18
2017-05-05T15:57:02.548Z,4.37
2017-05-05T15:59:29.582Z,4.60
2017-05-05T16:01:56.610Z,4.85
2017-05-05T16:04:23.619Z,5.07
2017-05-05T16:06:50.608Z,6.10
2017-05-05T16:09:17.664Z,5.60
2017-05-05T16:11:44.678Z,4.37
2017-05-05T16:14:12.414Z,4.75
2017-05-05T16:16:39.447Z,4.25
2017-05-05T16:19:06.477Z,3.75
2017-05-05T16:21:33.496Z,3.30
2017-05-05T16:24:00.565Z,3.50
2017-05-05T16:26:27.601Z,4.55
2017-05-05T16:28:54.633Z,4.57
2017-05-05T16:31:21.728Z,4.97
2017-05-05T16:33:48.831Z,4.30
2017-05-05T16:36:15.867Z,4.62
2017-05-05T16:38:43.701Z,4.73
2017-05-05T16:41:10.711Z,4.72
2017-05-05T16:43:37.779Z,4.27
2017-05-05T16:46:04.848Z,5.67
2017-05-05T16:48:31.922Z,6.95
2017-05-05T16:50:59.669Z,5.68
2017-05-05T16:56:01.854Z,4.08
2017-05-05T16:58:29.696Z,3.42
2017-05-05T17:00:56.733Z,4.40
2017-05-05T17:03:23.793Z,5.50
2017-05-05T17:05:50.831Z,4.03
2017-05-05T17:08:17.832Z,3.62
2017-05-05T17:10:44.886Z,4.00
2017-05-05T17:13:11.959Z,4.18
2017-05-05T17:15:38.976Z,5.05
2017-05-05T17:18:06.035Z,5.20
2017-05-05T17:20:33.105Z,4.30
2017-05-05T17:23:00.164Z,5.32
2017-05-05T17:25:27.181Z,3.77
2017-05-05T17:27:54.225Z,4.10
2017-05-05T17:30:21.275Z,4.08
2017-05-05T17:32:48.340Z,4.53
2017-05-05T17:35:15.436Z,4.58
2017-05-05T17:37:43.222Z,4.00
2017-05-05T17:40:10.287Z,4.55
2017-05-05T17:42:37.364Z,4.00
2017-05-05T17:45:04.416Z,3.98
2017-05-05T17:47:31.409Z,4.48
2017-05-05T17:49:58.504Z,5.48
2017-05-05T17:52:25.544Z,4.63
2017-05-05T17:54:52.621Z,4.42
2017-05-05T17:57:19.685Z,4.72
2017-05-05T17:59:47.503Z,4.95
2017-05-05T18:02:14.577Z,6.68
2017-05-05T18:04:41.672Z,6.48
2017-05-05T18:07:08.738Z,4.22
2017-05-05T18:09:35.739Z,4.95
2017-05-05T18:12:03.565Z,5.48
2017-05-05T18:14:30.574Z,4.92
2017-05-05T18:16:57.626Z,5.13
2017-05-05T18:19:24.697Z,5.30
2017-05-05T18:21:51.808Z,4.88
2017-05-05T18:24:18.898Z,4.97
2017-05-05T18:26:45.964Z,5.67
2017-05-05T18:29:13.036Z,5.33
2017-05-05T18:31:40.834Z,5.43
2017-05-05T18:34:07.846Z,7.33
2017-05-05T18:36:35.617Z,5.78
2017-05-05T18:39:02.754Z,5.43
2017-05-05T18:41:29.861Z,4.77
2017-05-05T18:43:56.868Z,6.53
2017-05-05T18:46:23.928Z,5.50
2017-05-05T18:48:50.972Z,4.10
2017-05-05T18:51:18.091Z,4.17
2017-05-05T18:53:45.868Z,5.58
2017-05-05T18:56:13.640Z,4.43
2017-05-05T18:58:40.723Z,4.98
2017-05-05T19:01:08.518Z,4.37
2017-05-05T19:03:35.614Z,5.27
2017-05-05T19:06:02.714Z,4.62
2017-05-05T19:08:29.783Z,4.07
2017-05-05T19:10:57.593Z,4.88
2017-05-05T19:13:24.675Z,4.12
2017-05-05T19:15:51.735Z,4.87
2017-05-05T19:18:19.512Z,6.65
2017-05-05T19:20:47.328Z,5.17
2017-05-05T19:23:14.374Z,5.00
2017-05-05T19:25:41.465Z,5.53
2017-05-05T19:28:08.552Z,5.27
2017-05-05T19:30:35.566Z,6.38
2017-05-05T19:33:03.336Z,8.00
2017-05-05T19:35:30.429Z,8.43
2017-05-05T19:37:57.426Z,5.77
2017-05-05T19:40:25.224Z,5.70
2017-05-05T19:42:52.299Z,6.52
2017-05-05T19:45:19.309Z,5.48
2017-05-05T19:47:46.379Z,5.40
2017-05-05T19:50:13.437Z,5.93
2017-05-05T19:52:40.444Z,5.92
2017-05-05T19:55:07.483Z,5.53
2017-05-05T19:57:34.500Z,6.58
2017-05-05T20:00:01.537Z,5.70
2017-05-05T20:02:28.599Z,5.63
2017-05-05T20:04:56.384Z,6.58
2017-05-05T20:07:23.474Z,6.18
2017-05-05T20:09:50.528Z,6.73
2017-05-05T20:12:17.641Z,6.97
2017-05-05T20:14:44.811Z,6.90
2017-05-05T20:17:11.830Z,8.62
2017-05-05T20:19:38.844Z,8.85
2017-05-05T20:22:05.919Z,9.22
2017-05-05T20:24:32.941Z,11.58
2017-05-05T20:26:59.940Z,10.87
2017-05-05T20:29:27.050Z,10.50
2017-05-05T20:31:54.871Z,11.77
2017-05-05T20:34:21.928Z,9.52
2017-05-05T20:36:48.987Z,13.20
2017-05-05T20:39:16.018Z,10.90
2017-05-05T20:41:43.054Z,10.53
2017-05-05T20:44:10.137Z,10.23
2017-05-05T20:46:37.171Z,9.17
2017-05-05T20:49:04.207Z,10.58
2017-05-05T20:51:31.297Z,9.72
2017-05-05T20:53:58.435Z,9.48
2017-05-05T20:56:26.214Z,9.50
2017-05-05T20:58:53.224Z,11.02
2017-05-05T21:01:20.335Z,11.98
2017-05-05T21:03:47.357Z,11.38
2017-05-05T21:06:14.377Z,11.60
2017-05-05T21:08:43.027Z,11.47
2017-05-05T21:11:10.041Z,10.43
2017-05-05T21:13:37.071Z,10.73
2017-05-05T21:16:04.144Z,12.48
2017-05-05T21:18:31.230Z,11.38
2017-05-05T21:20:58.252Z,12.30
2017-05-05T21:23:25.343Z,13.45
2017-05-05T21:25:52.397Z,12.45
2017-05-05T21:28:20.314Z,14.62
2017-05-05T21:30:47.331Z,12.23
2017-05-05T21:33:14.406Z,12.90
2017-05-05T21:35:41.456Z,13.22
2017-05-05T21:38:08.493Z,13.03
2017-05-05T21:40:35.516Z,14.48
2017-05-05T21:43:02.605Z,13.25
2017-05-05T21:45:30.371Z,11.70
2017-05-05T21:47:57.396Z,13.85
2017-05-05T21:50:24.493Z,14.52
2017-05-05T21:52:52.171Z,14.18
2017-05-05T21:55:20.007Z,12.65
2017-05-05T21:57:47.078Z,11.82
2017-05-05T22:00:14.096Z,13.22
2017-05-05T22:02:41.114Z,12.17
2017-05-05T22:05:08.165Z,13.03
2017-05-05T22:07:35.175Z,12.60
2017-05-05T22:10:02.247Z,12.18
2017-05-05T22:12:29.279Z,13.32
2017-05-05T22:14:56.315Z,13.42
2017-05-05T22:17:24.091Z,12.72
2017-05-05T22:19:51.088Z,13.92
2017-05-05T22:22:18.136Z,13.25
2017-05-05T22:24:45.181Z,13.12
2017-05-05T22:27:12.208Z,14.27
2017-05-05T22:29:39.246Z,12.95
2017-05-05T22:32:06.276Z,12.43
2017-05-05T22:34:33.313Z,12.27
2017-05-05T22:37:01.115Z,12.92
2017-05-05T22:39:28.180Z,12.98
2017-05-05T22:41:55.228Z,13.60
2017-05-05T22:44:22.256Z,13.37
2017-05-05T22:46:49.269Z,13.30
2017-05-05T22:49:16.276Z,13.25
2017-05-05T22:51:43.341Z,12.17
2017-05-05T22:54:10.327Z,12.02
2017-05-05T22:56:37.306Z,12.48
2017-05-05T22:59:04.373Z,15.72
2017-05-05T23:01:31.387Z,14.62
2017-05-05T23:03:58.447Z,12.75
2017-05-05T23:06:26.303Z,14.15
2017-05-05T23:08:53.303Z,15.02
2017-05-05T23:11:21.109Z,12.22
2017-05-05T23:13:48.102Z,11.98
2017-05-05T23:16:15.835Z,15.53
2017-05-05T23:18:42.927Z,12.23
2017-05-05T23:21:09.918Z,12.95
2017-05-05T23:23:36.922Z,12.45
2017-05-05T23:26:03.977Z,14.12
2017-05-05T23:28:30.996Z,13.38
2017-05-05T23:30:58.746Z,12.90
2017-05-05T23:33:25.832Z,11.77
2017-05-05T23:35:52.838Z,14.58
2017-05-05T23:38:19.828Z,12.30
2017-05-05T23:40:46.901Z,14.38
2017-05-05T23:43:13.965Z,14.08
2017-05-05T23:45:40.979Z,13.33
2017-05-05T23:48:08.014Z,12.30
2017-05-05T23:50:35.126Z,11.18
2017-05-05T23:53:02.129Z,12.97
2017-05-05T23:55:29.131Z,13.33
2017-05-05T23:57:56.922Z,12.38
